sensor_id;sensor_type;location;lat;lon;timestamp;P1;durP1;ratioP1;P2;durP2;ratioP2
8187;SDS011;4135;49.184;9.722;2022-07-09T00:01:32;6.45;;;2.50;;
8187;SDS011;4135;49.184;9.722;2022-07-09T00:04:02;5.65;;;2.45;;
8187;SDS011;4135;49.184;9.722;2022-07-09T00:06:31;5.85;;;2.15;;
8187;SDS011;4135;49.184;9.722;2022-07-09T00:09:01;5.75;;;1.83;;
8187;SDS011;4135;49.184;9.722;2022-07-09T00:11:30;4.47;;;1.80;;
8187;SDS011;4135;49.184;9.722;2022-07-09T00:14:00;9.98;;;2.38;;
8187;SDS011;4135;49.184;9.722;2022-07-09T00:16:29;3.08;;;1.75;;
8187;SDS011;4135;49.184;9.722;2022-07-09T00:18:59;6.38;;;2.55;;
8187;SDS011;4135;49.184;9.722;2022-07-09T00:21:28;5.35;;;2.05;;
8187;SDS011;4135;49.184;9.722;2022-07-09T00:23:58;7.30;;;2.10;;
8187;SDS011;4135;49.184;9.722;2022-07-09T00:26:27;2.83;;;1.92;;
8187;SDS011;4135;49.184;9.722;2022-07-09T00:28:57;3.10;;;1.80;;
8187;SDS011;4135;49.184;9.722;2022-07-09T00:31:27;9.00;;;2.35;;
8187;SDS011;4135;49.184;9.722;2022-07-09T00:33:56;4.32;;;2.17;;
8187;SDS011;4135;49.184;9.722;2022-07-09T00:36:26;7.20;;;2.15;;
8187;SDS011;4135;49.184;9.722;2022-07-09T00:38:55;3.95;;;2.13;;
8187;SDS011;4135;49.184;9.722;2022-07-09T00:41:25;4.88;;;2.00;;
8187;SDS011;4135;49.184;9.722;2022-07-09T00:43:54;4.22;;;2.22;;
8187;SDS011;4135;49.184;9.722;2022-07-09T00:46:24;5.57;;;2.30;;
8187;SDS011;4135;49.184;9.722;2022-07-09T00:48:53;4.38;;;2.20;;
8187;SDS011;4135;49.184;9.722;2022-07-09T00:51:23;4.50;;;1.60;;
8187;SDS011;4135;49.184;9.722;2022-07-09T00:53:52;7.93;;;2.17;;
8187;SDS011;4135;49.184;9.722;2022-07-09T00:56:22;4.15;;;2.17;;
8187;SDS011;4135;49.184;9.722;2022-07-09T00:58:52;6.68;;;2.97;;
8187;SDS011;4135;49.184;9.722;2022-07-09T01:01:22;3.75;;;2.17;;
8187;SDS011;4135;49.184;9.722;2022-07-09T01:03:52;4.95;;;2.65;;
8187;SDS011;4135;49.184;9.722;2022-07-09T01:06:21;5.43;;;1.77;;
8187;SDS011;4135;49.184;9.722;2022-07-09T01:08:51;4.13;;;1.88;;
8187;SDS011;4135;49.184;9.722;2022-07-09T01:11:20;3.47;;;2.10;;
8187;SDS011;4135;49.184;9.722;2022-07-09T01:13:50;4.47;;;2.25;;
8187;SDS011;4135;49.184;9.722;2022-07-09T01:16:20;3.83;;;2.03;;
8187;SDS011;4135;49.184;9.722;2022-07-09T01:18:49;7.03;;;2.20;;
8187;SDS011;4135;49.184;9.722;2022-07-09T01:21:19;5.72;;;2.28;;
8187;SDS011;4135;49.184;9.722;2022-07-09T01:23:48;4.10;;;2.20;;
8187;SDS011;4135;49.184;9.722;2022-07-09T01:26:18;3.35;;;2.10;;
8187;SDS011;4135;49.184;9.722;2022-07-09T01:28:50;4.32;;;2.15;;
8187;SDS011;4135;49.184;9.722;2022-07-09T01:31:20;3.30;;;2.20;;
8187;SDS011;4135;49.184;9.722;2022-07-09T01:33:49;5.65;;;2.40;;
8187;SDS011;4135;49.184;9.722;2022-07-09T01:36:19;4.53;;;2.10;;
8187;SDS011;4135;49.184;9.722;2022-07-09T01:38:48;3.50;;;2.08;;
8187;SDS011;4135;49.184;9.722;2022-07-09T01:41:18;9.18;;;2.40;;
8187;SDS011;4135;49.184;9.722;2022-07-09T01:43:47;5.53;;;2.10;;
8187;SDS011;4135;49.184;9.722;2022-07-09T01:46:17;3.67;;;2.38;;
8187;SDS011;4135;49.184;9.722;2022-07-09T01:48:46;4.55;;;2.47;;
8187;SDS011;4135;49.184;9.722;2022-07-09T01:51:16;4.30;;;2.50;;
8187;SDS011;4135;49.184;9.722;2022-07-09T01:53:45;5.05;;;2.45;;
8187;SDS011;4135;49.184;9.722;2022-07-09T01:56:15;3.28;;;1.95;;
8187;SDS011;4135;49.184;9.722;2022-07-09T01:58:44;4.40;;;2.47;;
8187;SDS011;4135;49.184;9.722;2022-07-09T02:01:14;5.22;;;3.00;;
8187;SDS011;4135;49.184;9.722;2022-07-09T02:03:43;8.35;;;2.63;;
8187;SDS011;4135;49.184;9.722;2022-07-09T02:06:13;4.55;;;2.75;;
8187;SDS011;4135;49.184;9.722;2022-07-09T02:08:42;6.88;;;2.72;;
8187;SDS011;4135;49.184;9.722;2022-07-09T02:11:12;6.22;;;3.05;;
8187;SDS011;4135;49.184;9.722;2022-07-09T02:13:41;7.63;;;3.05;;
8187;SDS011;4135;49.184;9.722;2022-07-09T02:16:11;6.40;;;2.75;;
8187;SDS011;4135;49.184;9.722;2022-07-09T02:18:40;7.93;;;2.65;;
8187;SDS011;4135;49.184;9.722;2022-07-09T02:21:10;7.60;;;3.38;;
8187;SDS011;4135;49.184;9.722;2022-07-09T02:23:40;9.88;;;3.53;;
8187;SDS011;4135;49.184;9.722;2022-07-09T02:26:09;5.13;;;3.15;;
8187;SDS011;4135;49.184;9.722;2022-07-09T02:28:39;5.55;;;2.88;;
8187;SDS011;4135;49.184;9.722;2022-07-09T02:31:08;5.53;;;2.80;;
8187;SDS011;4135;49.184;9.722;2022-07-09T02:33:38;4.93;;;2.83;;
8187;SDS011;4135;49.184;9.722;2022-07-09T02:36:07;5.22;;;3.00;;
8187;SDS011;4135;49.184;9.722;2022-07-09T02:38:37;7.93;;;3.33;;
8187;SDS011;4135;49.184;9.722;2022-07-09T02:41:07;5.45;;;2.65;;
8187;SDS011;4135;49.184;9.722;2022-07-09T02:43:36;5.03;;;2.47;;
8187;SDS011;4135;49.184;9.722;2022-07-09T02:46:07;4.30;;;2.83;;
8187;SDS011;4135;49.184;9.722;2022-07-09T02:48:36;4.47;;;2.85;;
8187;SDS011;4135;49.184;9.722;2022-07-09T02:51:06;6.18;;;3.08;;
8187;SDS011;4135;49.184;9.722;2022-07-09T02:53:36;3.58;;;2.53;;
8187;SDS011;4135;49.184;9.722;2022-07-09T02:56:05;6.00;;;2.50;;
8187;SDS011;4135;49.184;9.722;2022-07-09T02:58:35;5.45;;;3.08;;
8187;SDS011;4135;49.184;9.722;2022-07-09T03:01:04;5.75;;;3.10;;
8187;SDS011;4135;49.184;9.722;2022-07-09T03:03:34;5.95;;;2.55;;
8187;SDS011;4135;49.184;9.722;2022-07-09T03:06:04;5.78;;;2.83;;
8187;SDS011;4135;49.184;9.722;2022-07-09T03:08:37;5.40;;;2.47;;
8187;SDS011;4135;49.184;9.722;2022-07-09T03:11:06;8.50;;;2.92;;
8187;SDS011;4135;49.184;9.722;2022-07-09T03:13:36;4.32;;;2.45;;
8187;SDS011;4135;49.184;9.722;2022-07-09T03:16:06;9.90;;;2.40;;
8187;SDS011;4135;49.184;9.722;2022-07-09T03:18:35;2.72;;;2.28;;
8187;SDS011;4135;49.184;9.722;2022-07-09T03:21:06;4.20;;;1.92;;
8187;SDS011;4135;49.184;9.722;2022-07-09T03:23:37;8.75;;;2.60;;
8187;SDS011;4135;49.184;9.722;2022-07-09T03:26:08;5.65;;;2.45;;
8187;SDS011;4135;49.184;9.722;2022-07-09T03:28:38;7.32;;;2.38;;
8187;SDS011;4135;49.184;9.722;2022-07-09T03:31:08;5.78;;;2.72;;
8187;SDS011;4135;49.184;9.722;2022-07-09T03:33:37;3.53;;;2.13;;
8187;SDS011;4135;49.184;9.722;2022-07-09T03:36:07;4.50;;;2.70;;
8187;SDS011;4135;49.184;9.722;2022-07-09T03:38:38;4.40;;;2.08;;
8187;SDS011;4135;49.184;9.722;2022-07-09T03:41:08;5.88;;;2.63;;
8187;SDS011;4135;49.184;9.722;2022-07-09T03:43:37;5.43;;;2.43;;
8187;SDS011;4135;49.184;9.722;2022-07-09T03:46:07;7.38;;;2.83;;
8187;SDS011;4135;49.184;9.722;2022-07-09T03:48:36;5.10;;;2.45;;
8187;SDS011;4135;49.184;9.722;2022-07-09T03:51:06;8.02;;;2.97;;
8187;SDS011;4135;49.184;9.722;2022-07-09T03:53:35;4.50;;;2.53;;
8187;SDS011;4135;49.184;9.722;2022-07-09T03:56:05;6.68;;;3.03;;
8187;SDS011;4135;49.184;9.722;2022-07-09T03:58:35;5.22;;;3.08;;
8187;SDS011;4135;49.184;9.722;2022-07-09T04:01:05;5.40;;;2.95;;
8187;SDS011;4135;49.184;9.722;2022-07-09T04:03:34;7.05;;;3.22;;
8187;SDS011;4135;49.184;9.722;2022-07-09T04:06:04;5.93;;;3.35;;
8187;SDS011;4135;49.184;9.722;2022-07-09T04:08:33;7.07;;;3.03;;
8187;SDS011;4135;49.184;9.722;2022-07-09T04:11:03;7.88;;;3.40;;
8187;SDS011;4135;49.184;9.722;2022-07-09T04:13:32;7.38;;;3.10;;
8187;SDS011;4135;49.184;9.722;2022-07-09T04:16:02;5.68;;;3.17;;
8187;SDS011;4135;49.184;9.722;2022-07-09T04:18:32;8.13;;;2.95;;
8187;SDS011;4135;49.184;9.722;2022-07-09T04:21:03;5.80;;;3.08;;
8187;SDS011;4135;49.184;9.722;2022-07-09T04:23:32;10.73;;;3.40;;
8187;SDS011;4135;49.184;9.722;2022-07-09T04:26:02;8.07;;;3.17;;
8187;SDS011;4135;49.184;9.722;2022-07-09T04:28:32;7.57;;;3.67;;
8187;SDS011;4135;49.184;9.722;2022-07-09T04:31:01;6.55;;;3.25;;
8187;SDS011;4135;49.184;9.722;2022-07-09T04:33:31;6.40;;;3.30;;
8187;SDS011;4135;49.184;9.722;2022-07-09T04:36:00;8.95;;;3.97;;
8187;SDS011;4135;49.184;9.722;2022-07-09T04:38:30;4.55;;;2.88;;
8187;SDS011;4135;49.184;9.722;2022-07-09T04:41:00;9.55;;;3.67;;
8187;SDS011;4135;49.184;9.722;2022-07-09T04:43:29;6.93;;;2.90;;
8187;SDS011;4135;49.184;9.722;2022-07-09T04:45:59;4.93;;;3.30;;
8187;SDS011;4135;49.184;9.722;2022-07-09T04:48:29;6.07;;;2.75;;
8187;SDS011;4135;49.184;9.722;2022-07-09T04:50:58;6.35;;;3.05;;
8187;SDS011;4135;49.184;9.722;2022-07-09T04:53:28;6.07;;;3.25;;
8187;SDS011;4135;49.184;9.722;2022-07-09T04:55:57;5.30;;;2.65;;
8187;SDS011;4135;49.184;9.722;2022-07-09T04:58:28;7.47;;;3.28;;
8187;SDS011;4135;49.184;9.722;2022-07-09T05:00:58;6.63;;;3.33;;
8187;SDS011;4135;49.184;9.722;2022-07-09T05:03:27;6.10;;;2.95;;
8187;SDS011;4135;49.184;9.722;2022-07-09T05:05:57;5.78;;;2.80;;
8187;SDS011;4135;49.184;9.722;2022-07-09T05:08:27;8.48;;;3.50;;
8187;SDS011;4135;49.184;9.722;2022-07-09T05:10:57;5.70;;;2.78;;
8187;SDS011;4135;49.184;9.722;2022-07-09T05:13:26;4.47;;;2.75;;
8187;SDS011;4135;49.184;9.722;2022-07-09T05:15:56;6.18;;;2.88;;
8187;SDS011;4135;49.184;9.722;2022-07-09T05:18:25;4.43;;;2.60;;
8187;SDS011;4135;49.184;9.722;2022-07-09T05:20:55;3.92;;;2.90;;
8187;SDS011;4135;49.184;9.722;2022-07-09T05:23:25;6.50;;;2.58;;
8187;SDS011;4135;49.184;9.722;2022-07-09T05:25:55;4.97;;;2.65;;
8187;SDS011;4135;49.184;9.722;2022-07-09T05:28:25;5.57;;;3.03;;
8187;SDS011;4135;49.184;9.722;2022-07-09T05:30:54;6.28;;;2.70;;
8187;SDS011;4135;49.184;9.722;2022-07-09T05:33:24;6.47;;;2.42;;
8187;SDS011;4135;49.184;9.722;2022-07-09T05:35:53;6.47;;;2.70;;
8187;SDS011;4135;49.184;9.722;2022-07-09T05:38:23;5.15;;;2.65;;
8187;SDS011;4135;49.184;9.722;2022-07-09T05:40:53;5.90;;;3.05;;
8187;SDS011;4135;49.184;9.722;2022-07-09T05:43:22;5.32;;;2.60;;
8187;SDS011;4135;49.184;9.722;2022-07-09T05:45:52;6.65;;;2.35;;
8187;SDS011;4135;49.184;9.722;2022-07-09T05:48:21;6.85;;;2.55;;
8187;SDS011;4135;49.184;9.722;2022-07-09T05:50:51;5.97;;;2.53;;
8187;SDS011;4135;49.184;9.722;2022-07-09T05:53:20;3.70;;;2.13;;
8187;SDS011;4135;49.184;9.722;2022-07-09T05:55:50;3.65;;;2.05;;
8187;SDS011;4135;49.184;9.722;2022-07-09T05:58:20;4.70;;;2.53;;
8187;SDS011;4135;49.184;9.722;2022-07-09T06:00:49;5.50;;;2.25;;
8187;SDS011;4135;49.184;9.722;2022-07-09T06:03:19;4.75;;;2.05;;
8187;SDS011;4135;49.184;9.722;2022-07-09T06:05:48;8.00;;;2.60;;
8187;SDS011;4135;49.184;9.722;2022-07-09T06:08:18;5.82;;;2.50;;
8187;SDS011;4135;49.184;9.722;2022-07-09T06:10:47;3.05;;;2.13;;
8187;SDS011;4135;49.184;9.722;2022-07-09T06:13:17;7.95;;;2.83;;
8187;SDS011;4135;49.184;9.722;2022-07-09T06:15:47;3.88;;;2.15;;
8187;SDS011;4135;49.184;9.722;2022-07-09T06:18:16;6.13;;;2.78;;
8187;SDS011;4135;49.184;9.722;2022-07-09T06:20:46;4.80;;;2.10;;
8187;SDS011;4135;49.184;9.722;2022-07-09T06:23:15;5.43;;;2.92;;
8187;SDS011;4135;49.184;9.722;2022-07-09T06:25:45;4.07;;;2.00;;
8187;SDS011;4135;49.184;9.722;2022-07-09T06:28:14;3.65;;;2.30;;
8187;SDS011;4135;49.184;9.722;2022-07-09T06:30:44;5.65;;;2.08;;
8187;SDS011;4135;49.184;9.722;2022-07-09T06:33:14;7.07;;;2.78;;
8187;SDS011;4135;49.184;9.722;2022-07-09T06:35:43;4.50;;;2.40;;
8187;SDS011;4135;49.184;9.722;2022-07-09T06:38:13;6.63;;;2.47;;
8187;SDS011;4135;49.184;9.722;2022-07-09T06:40:42;3.75;;;2.35;;
8187;SDS011;4135;49.184;9.722;2022-07-09T06:43:12;7.10;;;2.30;;
8187;SDS011;4135;49.184;9.722;2022-07-09T06:45:41;4.28;;;2.10;;
8187;SDS011;4135;49.184;9.722;2022-07-09T06:48:11;5.07;;;2.30;;
8187;SDS011;4135;49.184;9.722;2022-07-09T06:50:40;6.80;;;2.38;;
8187;SDS011;4135;49.184;9.722;2022-07-09T06:53:10;3.72;;;1.90;;
8187;SDS011;4135;49.184;9.722;2022-07-09T06:55:39;4.47;;;2.15;;
8187;SDS011;4135;49.184;9.722;2022-07-09T06:58:09;4.45;;;1.85;;
8187;SDS011;4135;49.184;9.722;2022-07-09T07:00:38;3.90;;;1.80;;
8187;SDS011;4135;49.184;9.722;2022-07-09T07:03:08;3.20;;;1.60;;
8187;SDS011;4135;49.184;9.722;2022-07-09T07:05:37;5.15;;;2.13;;
8187;SDS011;4135;49.184;9.722;2022-07-09T07:08:07;3.45;;;1.75;;
8187;SDS011;4135;49.184;9.722;2022-07-09T07:10:36;4.25;;;1.58;;
8187;SDS011;4135;49.184;9.722;2022-07-09T07:13:06;3.83;;;1.50;;
8187;SDS011;4135;49.184;9.722;2022-07-09T07:15:35;2.47;;;1.25;;
8187;SDS011;4135;49.184;9.722;2022-07-09T07:18:05;8.05;;;1.85;;
8187;SDS011;4135;49.184;9.722;2022-07-09T07:20:34;7.85;;;2.33;;
8187;SDS011;4135;49.184;9.722;2022-07-09T07:23:04;6.35;;;1.67;;
8187;SDS011;4135;49.184;9.722;2022-07-09T07:25:33;5.22;;;1.70;;
8187;SDS011;4135;49.184;9.722;2022-07-09T07:28:03;7.72;;;1.75;;
8187;SDS011;4135;49.184;9.722;2022-07-09T07:30:34;2.80;;;1.52;;
8187;SDS011;4135;49.184;9.722;2022-07-09T07:33:04;4.32;;;1.70;;
8187;SDS011;4135;49.184;9.722;2022-07-09T07:35:33;5.65;;;2.20;;
8187;SDS011;4135;49.184;9.722;2022-07-09T07:38:03;3.65;;;1.50;;
8187;SDS011;4135;49.184;9.722;2022-07-09T07:40:32;2.38;;;1.25;;
8187;SDS011;4135;49.184;9.722;2022-07-09T07:43:02;6.75;;;1.85;;
8187;SDS011;4135;49.184;9.722;2022-07-09T07:45:32;6.05;;;1.48;;
8187;SDS011;4135;49.184;9.722;2022-07-09T07:48:02;4.60;;;1.50;;
8187;SDS011;4135;49.184;9.722;2022-07-09T07:50:31;4.07;;;1.70;;
8187;SDS011;4135;49.184;9.722;2022-07-09T07:53:01;3.60;;;1.63;;
8187;SDS011;4135;49.184;9.722;2022-07-09T07:55:31;7.55;;;1.67;;
8187;SDS011;4135;49.184;9.722;2022-07-09T07:58:01;4.53;;;1.80;;
8187;SDS011;4135;49.184;9.722;2022-07-09T08:00:31;3.38;;;1.38;;
8187;SDS011;4135;49.184;9.722;2022-07-09T08:03:00;3.45;;;1.50;;
8187;SDS011;4135;49.184;9.722;2022-07-09T08:05:29;2.25;;;1.20;;
8187;SDS011;4135;49.184;9.722;2022-07-09T08:07:59;7.32;;;2.05;;
8187;SDS011;4135;49.184;9.722;2022-07-09T08:10:29;2.20;;;1.48;;
8187;SDS011;4135;49.184;9.722;2022-07-09T08:12:58;4.30;;;1.00;;
8187;SDS011;4135;49.184;9.722;2022-07-09T08:15:28;5.43;;;1.25;;
8187;SDS011;4135;49.184;9.722;2022-07-09T08:17:57;2.92;;;1.50;;
8187;SDS011;4135;49.184;9.722;2022-07-09T08:20:27;7.43;;;1.40;;
8187;SDS011;4135;49.184;9.722;2022-07-09T08:22:57;3.72;;;1.50;;
8187;SDS011;4135;49.184;9.722;2022-07-09T08:25:27;5.13;;;1.42;;
8187;SDS011;4135;49.184;9.722;2022-07-09T08:27:56;3.72;;;1.42;;
8187;SDS011;4135;49.184;9.722;2022-07-09T08:30:26;2.45;;;1.02;;
8187;SDS011;4135;49.184;9.722;2022-07-09T08:32:56;3.38;;;1.88;;
8187;SDS011;4135;49.184;9.722;2022-07-09T08:35:25;3.75;;;1.40;;
8187;SDS011;4135;49.184;9.722;2022-07-09T08:37:55;5.82;;;2.00;;
8187;SDS011;4135;49.184;9.722;2022-07-09T08:40:25;8.40;;;1.38;;
8187;SDS011;4135;49.184;9.722;2022-07-09T08:42:55;5.82;;;1.58;;
8187;SDS011;4135;49.184;9.722;2022-07-09T08:45:28;3.40;;;1.50;;
8187;SDS011;4135;49.184;9.722;2022-07-09T08:48:00;2.33;;;1.10;;
8187;SDS011;4135;49.184;9.722;2022-07-09T08:50:30;7.22;;;1.25;;
8187;SDS011;4135;49.184;9.722;2022-07-09T08:53:00;2.67;;;1.08;;
8187;SDS011;4135;49.184;9.722;2022-07-09T08:55:31;2.17;;;0.85;;
8187;SDS011;4135;49.184;9.722;2022-07-09T08:58:02;3.13;;;1.42;;
8187;SDS011;4135;49.184;9.722;2022-07-09T09:00:31;3.55;;;1.67;;
8187;SDS011;4135;49.184;9.722;2022-07-09T09:03:01;2.40;;;1.38;;
8187;SDS011;4135;49.184;9.722;2022-07-09T09:05:31;6.75;;;1.83;;
8187;SDS011;4135;49.184;9.722;2022-07-09T09:08:00;14.60;;;2.00;;
8187;SDS011;4135;49.184;9.722;2022-07-09T09:10:48;7.03;;;2.10;;
8187;SDS011;4135;49.184;9.722;2022-07-09T09:13:18;4.45;;;1.75;;
8187;SDS011;4135;49.184;9.722;2022-07-09T09:15:48;3.80;;;1.95;;
8187;SDS011;4135;49.184;9.722;2022-07-09T09:18:21;3.70;;;1.30;;
8187;SDS011;4135;49.184;9.722;2022-07-09T09:20:51;4.38;;;1.40;;
8187;SDS011;4135;49.184;9.722;2022-07-09T09:23:21;3.75;;;1.42;;
8187;SDS011;4135;49.184;9.722;2022-07-09T09:25:50;4.55;;;1.23;;
8187;SDS011;4135;49.184;9.722;2022-07-09T09:28:20;5.75;;;1.98;;
8187;SDS011;4135;49.184;9.722;2022-07-09T09:30:49;6.07;;;1.83;;
8187;SDS011;4135;49.184;9.722;2022-07-09T09:33:19;9.25;;;1.63;;
8187;SDS011;4135;49.184;9.722;2022-07-09T09:35:48;5.47;;;1.80;;
8187;SDS011;4135;49.184;9.722;2022-07-09T09:38:24;8.07;;;1.88;;
8187;SDS011;4135;49.184;9.722;2022-07-09T09:40:58;9.07;;;1.88;;
8187;SDS011;4135;49.184;9.722;2022-07-09T09:43:28;5.97;;;2.13;;
8187;SDS011;4135;49.184;9.722;2022-07-09T09:45:59;5.35;;;1.13;;
8187;SDS011;4135;49.184;9.722;2022-07-09T09:48:32;8.73;;;1.23;;
8187;SDS011;4135;49.184;9.722;2022-07-09T09:51:02;4.13;;;1.30;;
8187;SDS011;4135;49.184;9.722;2022-07-09T09:53:33;3.75;;;1.27;;
8187;SDS011;4135;49.184;9.722;2022-07-09T09:56:03;2.65;;;1.10;;
8187;SDS011;4135;49.184;9.722;2022-07-09T09:58:34;3.53;;;1.10;;
8187;SDS011;4135;49.184;9.722;2022-07-09T10:01:04;2.15;;;0.90;;
8187;SDS011;4135;49.184;9.722;2022-07-09T10:03:34;2.53;;;1.00;;
8187;SDS011;4135;49.184;9.722;2022-07-09T10:06:04;0.93;;;0.70;;
8187;SDS011;4135;49.184;9.722;2022-07-09T10:08:34;5.40;;;0.80;;
8187;SDS011;4135;49.184;9.722;2022-07-09T10:11:04;2.15;;;0.85;;
8187;SDS011;4135;49.184;9.722;2022-07-09T10:13:33;4.65;;;0.77;;
8187;SDS011;4135;49.184;9.722;2022-07-09T10:16:06;2.58;;;1.08;;
8187;SDS011;4135;49.184;9.722;2022-07-09T10:18:36;2.35;;;0.98;;
8187;SDS011;4135;49.184;9.722;2022-07-09T10:21:05;3.22;;;0.98;;
8187;SDS011;4135;49.184;9.722;2022-07-09T10:23:35;2.55;;;0.82;;
8187;SDS011;4135;49.184;9.722;2022-07-09T10:26:18;4.85;;;1.00;;
8187;SDS011;4135;49.184;9.722;2022-07-09T10:28:47;1.38;;;0.60;;
8187;SDS011;4135;49.184;9.722;2022-07-09T10:31:19;1.38;;;0.63;;
8187;SDS011;4135;49.184;9.722;2022-07-09T10:33:50;1.92;;;0.70;;
8187;SDS011;4135;49.184;9.722;2022-07-09T10:36:34;1.17;;;0.80;;
8187;SDS011;4135;49.184;9.722;2022-07-09T10:39:10;2.47;;;0.80;;
8187;SDS011;4135;49.184;9.722;2022-07-09T10:41:41;3.15;;;0.85;;
8187;SDS011;4135;49.184;9.722;2022-07-09T10:44:10;2.80;;;1.08;;
8187;SDS011;4135;49.184;9.722;2022-07-09T10:46:41;2.38;;;1.27;;
8187;SDS011;4135;49.184;9.722;2022-07-09T10:49:12;1.98;;;0.75;;
8187;SDS011;4135;49.184;9.722;2022-07-09T10:51:42;4.68;;;0.88;;
8187;SDS011;4135;49.184;9.722;2022-07-09T10:54:18;4.53;;;0.80;;
8187;SDS011;4135;49.184;9.722;2022-07-09T10:56:47;0.93;;;0.52;;
8187;SDS011;4135;49.184;9.722;2022-07-09T10:59:17;1.50;;;0.73;;
8187;SDS011;4135;49.184;9.722;2022-07-09T11:01:47;6.43;;;1.70;;
8187;SDS011;4135;49.184;9.722;2022-07-09T11:04:30;4.43;;;1.23;;
8187;SDS011;4135;49.184;9.722;2022-07-09T11:07:00;3.03;;;0.70;;
8187;SDS011;4135;49.184;9.722;2022-07-09T11:09:30;3.60;;;0.82;;
8187;SDS011;4135;49.184;9.722;2022-07-09T11:12:00;1.45;;;0.68;;
8187;SDS011;4135;49.184;9.722;2022-07-09T11:14:30;1.60;;;0.65;;
8187;SDS011;4135;49.184;9.722;2022-07-09T11:17:00;3.70;;;0.90;;
8187;SDS011;4135;49.184;9.722;2022-07-09T11:19:29;2.35;;;0.93;;
8187;SDS011;4135;49.184;9.722;2022-07-09T11:22:03;4.78;;;0.90;;
8187;SDS011;4135;49.184;9.722;2022-07-09T11:24:32;1.30;;;0.88;;
8187;SDS011;4135;49.184;9.722;2022-07-09T11:27:03;1.17;;;0.70;;
8187;SDS011;4135;49.184;9.722;2022-07-09T11:29:36;4.75;;;1.02;;
8187;SDS011;4135;49.184;9.722;2022-07-09T11:32:06;1.00;;;0.80;;
8187;SDS011;4135;49.184;9.722;2022-07-09T11:34:36;1.92;;;0.90;;
8187;SDS011;4135;49.184;9.722;2022-07-09T11:37:06;1.65;;;0.98;;
8187;SDS011;4135;49.184;9.722;2022-07-09T11:39:39;0.75;;;0.55;;
8187;SDS011;4135;49.184;9.722;2022-07-09T11:42:08;2.28;;;1.05;;
8187;SDS011;4135;49.184;9.722;2022-07-09T11:44:55;2.88;;;1.00;;
8187;SDS011;4135;49.184;9.722;2022-07-09T11:47:31;3.92;;;1.38;;
8187;SDS011;4135;49.184;9.722;2022-07-09T11:50:06;2.20;;;0.90;;
8187;SDS011;4135;49.184;9.722;2022-07-09T11:52:43;3.03;;;1.38;;
8187;SDS011;4135;49.184;9.722;2022-07-09T11:55:21;3.08;;;1.00;;
8187;SDS011;4135;49.184;9.722;2022-07-09T11:58:02;4.63;;;1.08;;
8187;SDS011;4135;49.184;9.722;2022-07-09T12:00:39;2.13;;;1.05;;
8187;SDS011;4135;49.184;9.722;2022-07-09T12:03:09;3.53;;;1.40;;
8187;SDS011;4135;49.184;9.722;2022-07-09T12:05:39;2.72;;;1.15;;
8187;SDS011;4135;49.184;9.722;2022-07-09T12:08:09;3.05;;;1.40;;
8187;SDS011;4135;49.184;9.722;2022-07-09T12:10:38;4.43;;;1.75;;
8187;SDS011;4135;49.184;9.722;2022-07-09T12:13:08;3.28;;;1.33;;
8187;SDS011;4135;49.184;9.722;2022-07-09T12:15:38;2.90;;;1.30;;
8187;SDS011;4135;49.184;9.722;2022-07-09T12:18:07;6.05;;;1.63;;
8187;SDS011;4135;49.184;9.722;2022-07-09T12:20:37;2.58;;;1.58;;
8187;SDS011;4135;49.184;9.722;2022-07-09T12:23:06;2.03;;;1.35;;
8187;SDS011;4135;49.184;9.722;2022-07-09T12:25:36;1.85;;;1.23;;
8187;SDS011;4135;49.184;9.722;2022-07-09T12:28:05;2.80;;;1.35;;
8187;SDS011;4135;49.184;9.722;2022-07-09T12:30:35;1.55;;;1.13;;
8187;SDS011;4135;49.184;9.722;2022-07-09T12:33:05;1.77;;;0.82;;
8187;SDS011;4135;49.184;9.722;2022-07-09T12:35:34;3.03;;;1.45;;
8187;SDS011;4135;49.184;9.722;2022-07-09T12:38:04;2.30;;;1.42;;
8187;SDS011;4135;49.184;9.722;2022-07-09T12:40:33;3.17;;;1.38;;
8187;SDS011;4135;49.184;9.722;2022-07-09T12:43:02;1.92;;;1.30;;
8187;SDS011;4135;49.184;9.722;2022-07-09T12:45:32;6.40;;;1.55;;
8187;SDS011;4135;49.184;9.722;2022-07-09T12:48:02;4.07;;;1.77;;
8187;SDS011;4135;49.184;9.722;2022-07-09T12:50:31;4.03;;;1.55;;
8187;SDS011;4135;49.184;9.722;2022-07-09T12:53:01;2.17;;;1.50;;
8187;SDS011;4135;49.184;9.722;2022-07-09T12:55:30;4.03;;;1.58;;
8187;SDS011;4135;49.184;9.722;2022-07-09T12:58:00;4.63;;;1.75;;
8187;SDS011;4135;49.184;9.722;2022-07-09T13:00:29;2.35;;;1.60;;
8187;SDS011;4135;49.184;9.722;2022-07-09T13:02:59;2.67;;;1.60;;
8187;SDS011;4135;49.184;9.722;2022-07-09T13:05:29;3.50;;;1.70;;
8187;SDS011;4135;49.184;9.722;2022-07-09T13:07:58;2.90;;;1.33;;
8187;SDS011;4135;49.184;9.722;2022-07-09T13:10:28;1.92;;;1.50;;
8187;SDS011;4135;49.184;9.722;2022-07-09T13:12:57;2.72;;;1.25;;
8187;SDS011;4135;49.184;9.722;2022-07-09T13:15:27;1.88;;;1.42;;
8187;SDS011;4135;49.184;9.722;2022-07-09T13:17:56;4.22;;;1.27;;
8187;SDS011;4135;49.184;9.722;2022-07-09T13:20:26;3.45;;;1.50;;
8187;SDS011;4135;49.184;9.722;2022-07-09T13:22:55;4.35;;;1.35;;
8187;SDS011;4135;49.184;9.722;2022-07-09T13:25:25;3.85;;;1.67;;
8187;SDS011;4135;49.184;9.722;2022-07-09T13:27:54;4.03;;;1.70;;
8187;SDS011;4135;49.184;9.722;2022-07-09T13:30:24;2.05;;;1.25;;
8187;SDS011;4135;49.184;9.722;2022-07-09T13:32:53;4.80;;;1.70;;
8187;SDS011;4135;49.184;9.722;2022-07-09T13:35:23;4.65;;;1.73;;
8187;SDS011;4135;49.184;9.722;2022-07-09T13:37:53;1.83;;;1.13;;
8187;SDS011;4135;49.184;9.722;2022-07-09T13:40:22;4.47;;;1.63;;
8187;SDS011;4135;49.184;9.722;2022-07-09T13:42:52;3.35;;;1.85;;
8187;SDS011;4135;49.184;9.722;2022-07-09T13:45:22;2.65;;;1.27;;
8187;SDS011;4135;49.184;9.722;2022-07-09T13:47:51;2.45;;;1.70;;
8187;SDS011;4135;49.184;9.722;2022-07-09T13:50:21;3.85;;;1.55;;
8187;SDS011;4135;49.184;9.722;2022-07-09T13:52:50;3.38;;;1.92;;
8187;SDS011;4135;49.184;9.722;2022-07-09T13:55:20;2.70;;;1.73;;
8187;SDS011;4135;49.184;9.722;2022-07-09T13:57:49;3.50;;;1.45;;
8187;SDS011;4135;49.184;9.722;2022-07-09T14:00:19;8.70;;;1.80;;
8187;SDS011;4135;49.184;9.722;2022-07-09T14:02:50;5.80;;;2.03;;
8187;SDS011;4135;49.184;9.722;2022-07-09T14:05:20;3.70;;;1.83;;
8187;SDS011;4135;49.184;9.722;2022-07-09T14:07:49;2.58;;;1.52;;
8187;SDS011;4135;49.184;9.722;2022-07-09T14:10:19;3.67;;;1.65;;
8187;SDS011;4135;49.184;9.722;2022-07-09T14:12:48;3.67;;;1.90;;
8187;SDS011;4135;49.184;9.722;2022-07-09T14:15:18;4.15;;;1.88;;
8187;SDS011;4135;49.184;9.722;2022-07-09T14:17:47;4.18;;;1.83;;
8187;SDS011;4135;49.184;9.722;2022-07-09T14:20:17;6.10;;;1.90;;
8187;SDS011;4135;49.184;9.722;2022-07-09T14:22:48;4.63;;;1.63;;
8187;SDS011;4135;49.184;9.722;2022-07-09T14:25:18;4.07;;;1.85;;
8187;SDS011;4135;49.184;9.722;2022-07-09T14:27:47;6.43;;;1.92;;
8187;SDS011;4135;49.184;9.722;2022-07-09T14:30:17;3.10;;;1.42;;
8187;SDS011;4135;49.184;9.722;2022-07-09T14:32:46;6.45;;;2.28;;
8187;SDS011;4135;49.184;9.722;2022-07-09T14:35:16;9.70;;;3.03;;
8187;SDS011;4135;49.184;9.722;2022-07-09T14:37:47;4.65;;;2.10;;
8187;SDS011;4135;49.184;9.722;2022-07-09T14:40:16;8.80;;;2.47;;
8187;SDS011;4135;49.184;9.722;2022-07-09T14:42:46;2.75;;;2.30;;
8187;SDS011;4135;49.184;9.722;2022-07-09T14:45:15;3.92;;;2.40;;
8187;SDS011;4135;49.184;9.722;2022-07-09T14:47:45;3.95;;;2.08;;
8187;SDS011;4135;49.184;9.722;2022-07-09T14:50:14;4.20;;;2.08;;
8187;SDS011;4135;49.184;9.722;2022-07-09T14:52:44;4.38;;;2.20;;
8187;SDS011;4135;49.184;9.722;2022-07-09T14:55:14;5.13;;;2.28;;
8187;SDS011;4135;49.184;9.722;2022-07-09T14:57:44;7.50;;;2.95;;
8187;SDS011;4135;49.184;9.722;2022-07-09T15:00:14;4.80;;;2.47;;
8187;SDS011;4135;49.184;9.722;2022-07-09T15:02:45;2.97;;;2.40;;
8187;SDS011;4135;49.184;9.722;2022-07-09T15:05:14;6.10;;;2.67;;
8187;SDS011;4135;49.184;9.722;2022-07-09T15:07:44;4.60;;;2.42;;
8187;SDS011;4135;49.184;9.722;2022-07-09T15:10:14;10.63;;;2.92;;
8187;SDS011;4135;49.184;9.722;2022-07-09T15:12:43;6.95;;;2.58;;
8187;SDS011;4135;49.184;9.722;2022-07-09T15:15:13;5.50;;;2.50;;
8187;SDS011;4135;49.184;9.722;2022-07-09T15:17:42;4.65;;;2.70;;
8187;SDS011;4135;49.184;9.722;2022-07-09T15:20:12;4.60;;;2.13;;
8187;SDS011;4135;49.184;9.722;2022-07-09T15:22:41;6.97;;;2.15;;
8187;SDS011;4135;49.184;9.722;2022-07-09T15:25:11;8.70;;;2.30;;
8187;SDS011;4135;49.184;9.722;2022-07-09T15:27:40;3.10;;;2.35;;
8187;SDS011;4135;49.184;9.722;2022-07-09T15:30:10;8.40;;;2.38;;
8187;SDS011;4135;49.184;9.722;2022-07-09T15:32:40;2.35;;;2.08;;